Portada
METAR-TAF:

METAR-TAF

Aeropuertos :

Aeropuerto Internacional Baikal

Ulán-Udé, Rusia

latitud: 51-50N, longitud: 107-36E, altitud: 510 m

Observación

El informe se hizo hace 39 minutos, a las 15:30 UTC
Viento 8 kt del norte-noroeste
Temperatura 10°C
Humedad 57%
Presión 1009 hPa
Visibilidad 10 km o más
Cielo nuboso a una altura de 4000 ft, Cumulonimbus.

METAR: UIUU 231530Z 33004MPS 9999 BKN040CB 10/02 Q1009 R26/60D NOSIG RMK QFE713/0951

Hora: 00:09 (16:09 UTC)

Pronóstico

El informe se hizo hace 2 horas y 9 minutos, a las 14:00 UTC
Pronóstico válido del 23 a las 15 UTC al 24 a las 15 UTC
Viento 14 kt del norte-noroeste con ráfagas de 25 kt
Visibilidad 10 km o más
Cielo nuboso a una altura de 1400 ft, Cumulonimbus.
Temporalmente
del 23 a las 15 UTC al 23 a las 21 UTC
Viento 23 kt del norte-noroeste con ráfagas de 35 kt
Visibilidad: 2900 m

TAF: UIUU 231400Z 2315/2415 34007G13MPS 9999 BKN014CB TEMPO 2315/2321 33012G18MPS 2900 -DS

Observaciones y pronósticos meteorológicos de más de 4000 aeropuertos (mensajes METAR y TAF).

Los puntos amarillos y rojos representan las estaciones disponibles.

Ponga el ratón en el punto deseado para ver el nombre de la estación.

Haga clic para ver las observaciones y los pronósticos meteorológicos.

Para cambiar el mapa : haga clic en los botones verdes con una cruz de color negro para hacer un zoom, en el botón verde con un guión para alejar o en las flechas verdes para mapas adyacentes.


METAR-TAF: